^^
Meteo Knjazevac Station Historical Data
Daily Summary for September 5, 2021 Units:  Metric    English   Both
Daily Weekly Monthly Yearly Custom
  High: Low: Average:
Temperature: 22.8 °C 2.6 °C 12.7 °C
Dew Point: 11.9 °C 1.1 °C 7.2 °C
Humidity: 96% 49% 72%
Wind Speed: 12.9km/h 0km/h 3.4km/h
Wind Gust: 24.1km/h - -
Wind- - SSE
Pressure: 1025.3 hPa 1021.9 hPa -
Precipitation: 0 mm    
Historical Graphs
 
 
Tabular Data for September 5, 2021
Time Temperature Dew Point Pressure Wind Wind Speed Wind Gust Humidity Rainfall Rate (Hourly) solar Conditions
00:00 8.6 °C 5.9 °C 1024.6 hPa Calm   1.6 km/h 83% 0 mm 0 W/m2
00:10 8.2 °C 4.9 °C 1024.6 hPa Calm     80% 0 mm 0 W/m2
00:20 8 °C 4.9 °C 1024.6 hPa Calm   1.6 km/h 81% 0 mm 0 W/m2
00:30 7.7 °C 4.7 °C 1024.6 hPa Calm   3.2 km/h 81% 0 mm 0 W/m2
00:40 7.5 °C 4.9 °C 1024.6 hPa Calm   3.2 km/h 84% 0 mm 0 W/m2
00:50 7.3 °C 4.8 °C 1024.6 hPa Calm   1.6 km/h 84% 0 mm 0 W/m2
01:00 7.2 °C 4.8 °C 1024.6 hPa Calm   4.8 km/h 85% 0 mm 0 W/m2
01:10 7 °C 4.7 °C 1024.6 hPa Calm     85% 0 mm 0 W/m2
01:20 6.8 °C 4.3 °C 1024.6 hPa Calm   1.6 km/h 84% 0 mm 0 W/m2
01:30 6.6 °C 4.1 °C 1024.6 hPa Calm   3.2 km/h 84% 0 mm 0 W/m2
01:40 6.3 °C 3.8 °C 1024.6 hPa NW 1.6 km/h 3.2 km/h 84% 0 mm 0 W/m2
01:50 6.3 °C 4.1 °C 1024.6 hPa Calm   1.6 km/h 86% 0 mm 0 W/m2
02:00 6.1 °C 3.8 °C 1024.6 hPa Calm   1.6 km/h 85% 0 mm 0 W/m2
02:10 6 °C 3.7 °C 1024.6 hPa Calm   3.2 km/h 85% 0 mm 0 W/m2
02:20 5.7 °C 3.4 °C 1024.6 hPa Calm   3.2 km/h 85% 0 mm 0 W/m2
02:30 5.6 °C 3.3 °C 1024.6 hPa Calm   3.2 km/h 85% 0 mm 0 W/m2
02:40 5.4 °C 3.1 °C 1024.6 hPa Calm   1.6 km/h 85% 0 mm 0 W/m2
02:50 5.2 °C 2.9 °C 1024.6 hPa Calm   1.6 km/h 85% 0 mm 0 W/m2
03:00 5.1 °C 3.3 °C 1024.6 hPa WNW 3.2 km/h 8 km/h 88% 0 mm 0 W/m2
03:10 5.1 °C 3.6 °C 1024.6 hPa Calm   4.8 km/h 90% 0 mm 0 W/m2
03:20 5 °C 3.3 °C 1024.6 hPa Calm     89% 0 mm 0 W/m2
03:30 4.8 °C 3 °C 1024.6 hPa NW 3.2 km/h 3.2 km/h 88% 0 mm 0 W/m2
03:40 4.7 °C 2.9 °C 1024.6 hPa Calm   3.2 km/h 88% 0 mm 0 W/m2
03:50 4.6 °C 2.8 °C 1024.6 hPa Calm   3.2 km/h 88% 0 mm 0 W/m2
04:00 4.5 °C 2.7 °C 1024.6 hPa Calm   1.6 km/h 88% 0 mm 0 W/m2
04:10 4.3 °C 2.5 °C 1024.6 hPa Calm   1.6 km/h 88% 0 mm 0 W/m2
04:20 4.1 °C 2.3 °C 1024.6 hPa Calm   1.6 km/h 88% 0 mm 0 W/m2
04:30 4 °C 2.2 °C 1024.6 hPa NW 1.6 km/h 3.2 km/h 88% 0 mm 0 W/m2
04:40 3.9 °C 2.4 °C 1024.6 hPa WNW 1.6 km/h 4.8 km/h 90% 0 mm 0 W/m2
04:50 3.9 °C 2.4 °C 1024.6 hPa Calm   3.2 km/h 90% 0 mm 0 W/m2
05:00 3.8 °C 2.3 °C 1024.6 hPa Calm   1.6 km/h 90% 0 mm 0 W/m2
05:10 3.7 °C 2.1 °C 1024.6 hPa Calm   1.6 km/h 89% 0 mm 0 W/m2
05:20 3.6 °C 1.9 °C 1024.9 hPa Calm   3.2 km/h 89% 0 mm 0 W/m2
05:30 3.5 °C 2 °C 1024.9 hPa Calm   3.2 km/h 90% 0 mm 0 W/m2
05:40 3.4 °C 1.9 °C 1024.9 hPa Calm   1.6 km/h 90% 0 mm 0 W/m2
05:50 3.2 °C 1.6 °C 1024.9 hPa Calm   3.2 km/h 89% 0 mm 0 W/m2
06:00 3.1 °C 1.6 °C 1024.9 hPa Calm   3.2 km/h 90% 0 mm 0 W/m2
06:10 3.1 °C 1.6 °C 1024.9 hPa Calm   3.2 km/h 90% 0 mm 0 W/m2
06:20 3.1 °C 1.8 °C 1024.9 hPa Calm     91% 0 mm 0 W/m2
06:30 3.1 °C 2.1 °C 1024.9 hPa Calm     93% 0 mm 0 W/m2
06:40 3 °C 1.7 °C 1025.3 hPa Calm   3.2 km/h 91% 0 mm 7 W/m2
06:50 2.9 °C 1.4 °C 1025.3 hPa WNW 1.6 km/h 3.2 km/h 90% 0 mm 17 W/m2
07:00 2.7 °C 1.2 °C 1025.3 hPa Calm   3.2 km/h 90% 0 mm 26 W/m2
07:10 2.7 °C 1.2 °C 1025.3 hPa Calm   1.6 km/h 90% 0 mm 37 W/m2
07:20 2.6 °C 1.1 °C 1025.3 hPa Calm   3.2 km/h 90% 0 mm 65 W/m2
07:30 2.7 °C 1.4 °C 1025.3 hPa Calm   3.2 km/h 91% 0 mm 89 W/m2
07:40 2.8 °C 1.4 °C 1025.3 hPa Calm   3.2 km/h 91% 0 mm 113 W/m2
07:50 2.9 °C 1.9 °C 1025.3 hPa NW 3.2 km/h 6.4 km/h 93% 0 mm 137 W/m2
08:00 3.3 °C 2.6 °C 1025.3 hPa WNW 3.2 km/h 6.4 km/h 95% 0 mm 170 W/m2
08:10 3.6 °C 2.9 °C 1025.3 hPa WNW 1.6 km/h 4.8 km/h 95% 0 mm 125 W/m2
08:20 4 °C 3.4 °C 1025.3 hPa West 1.6 km/h 3.2 km/h 96% 0 mm 147 W/m2
08:30 4.8 °C 4.2 °C 1025.3 hPa Calm   3.2 km/h 96% 0 mm 252 W/m2
08:40 5.9 °C 5.3 °C 1025.3 hPa NW 1.6 km/h 3.2 km/h 96% 0 mm 285 W/m2
08:50 7.1 °C 6.2 °C 1025.3 hPa SW 1.6 km/h 3.2 km/h 94% 0 mm 315 W/m2
09:00 8 °C 6.6 °C 1025.3 hPa SW 1.6 km/h 4.8 km/h 91% 0 mm 344 W/m2
09:10 8.8 °C 7.1 °C 1025.3 hPa South 1.6 km/h 4.8 km/h 89% 0 mm 374 W/m2
09:20 9.8 °C 7.6 °C 1025.3 hPa North 4.8 km/h 9.7 km/h 86% 0 mm 408 W/m2
09:30 10.6 °C 8 °C 1025.3 hPa NNE 4.8 km/h 12.9 km/h 84% 0 mm 435 W/m2
09:40 11.3 °C 8.2 °C 1025.3 hPa North 3.2 km/h 11.3 km/h 81% 0 mm 463 W/m2
09:50 11.9 °C 8.6 °C 1025.3 hPa North 3.2 km/h 12.9 km/h 80% 0 mm 171 W/m2
10:00 12.6 °C 8.9 °C 1025.3 hPa North 3.2 km/h 19.3 km/h 78% 0 mm 160 W/m2
10:10 13.2 °C 9.3 °C 1025.3 hPa NNE 8 km/h 19.3 km/h 77% 0 mm 527 W/m2
10:20 13.7 °C 9.2 °C 1025.3 hPa NNE 11.3 km/h 16.1 km/h 74% 0 mm 545 W/m2
10:30 14.3 °C 9.5 °C 1025.3 hPa NNE 4.8 km/h 16.1 km/h 73% 0 mm 562 W/m2
10:40 14.9 °C 9.9 °C 1025.3 hPa North 1.6 km/h 14.5 km/h 72% 0 mm 578 W/m2
10:50 15.5 °C 9.8 °C 1025.3 hPa NE 11.3 km/h 20.9 km/h 69% 0 mm 593 W/m2
11:00 16.1 °C 10.2 °C 1025.3 hPa NNE 8 km/h 19.3 km/h 68% 0 mm 605 W/m2
11:10 16.7 °C 10.6 °C 1024.9 hPa NNE 9.7 km/h 19.3 km/h 67% 0 mm 617 W/m2
11:20 17.3 °C 10.7 °C 1024.9 hPa North 3.2 km/h 14.5 km/h 65% 0 mm 627 W/m2
11:30 17.9 °C 10.8 °C 1024.6 hPa North 8 km/h 22.5 km/h 63% 0 mm 635 W/m2
11:40 18.6 °C 11.2 °C 1024.6 hPa North 9.7 km/h 19.3 km/h 62% 0 mm 642 W/m2
11:50 19 °C 11.1 °C 1024.6 hPa North 8 km/h 14.5 km/h 60% 0 mm 575 W/m2
12:00 19.5 °C 11 °C 1024.6 hPa NNW 3.2 km/h 17.7 km/h 58% 0 mm 184 W/m2
12:10 20 °C 11.5 °C 1024.6 hPa NNW 3.2 km/h 12.9 km/h 58% 0 mm 315 W/m2
12:20 20.4 °C 11.1 °C 1024.3 hPa North 12.9 km/h 22.5 km/h 55% 0 mm 653 W/m2
12:30 20.8 °C 11.4 °C 1024.3 hPa North 4.8 km/h 19.3 km/h 55% 0 mm 651 W/m2
12:40 21.1 °C 11.4 °C 1024.3 hPa North 11.3 km/h 20.9 km/h 54% 0 mm 648 W/m2
12:50 21.5 °C 11.8 °C 1023.9 hPa North 4.8 km/h 20.9 km/h 54% 0 mm 644 W/m2
13:00 21.9 °C 11.9 °C 1023.9 hPa North 11.3 km/h 20.9 km/h 53% 0 mm 637 W/m2
13:10 22.1 °C 11.8 °C 1023.6 hPa North 8 km/h 22.5 km/h 52% 0 mm 630 W/m2
13:20 22.2 °C 11.9 °C 1023.6 hPa North 11.3 km/h 22.5 km/h 52% 0 mm 620 W/m2
13:30 22.2 °C 11.9 °C 1023.6 hPa North 8 km/h 24.1 km/h 52% 0 mm 609 W/m2
13:40 22.3 °C 11.4 °C 1023.2 hPa North 9.7 km/h 24.1 km/h 50% 0 mm 597 W/m2
13:50 22.4 °C 11.4 °C 1022.9 hPa North 8 km/h 20.9 km/h 50% 0 mm 583 W/m2
14:00 22.5 °C 11.6 °C 1022.9 hPa North 4.8 km/h 22.5 km/h 50% 0 mm 568 W/m2
14:10 22.6 °C 11.7 °C 1022.6 hPa North 11.3 km/h 22.5 km/h 50% 0 mm 551 W/m2
14:20 22.6 °C 11.7 °C 1022.6 hPa North 4.8 km/h 20.9 km/h 50% 0 mm 533 W/m2
14:30 22.7 °C 11.7 °C 1022.2 hPa North 9.7 km/h 19.3 km/h 50% 0 mm 514 W/m2
14:40 22.8 °C 11.8 °C 1022.2 hPa North 9.7 km/h 19.3 km/h 50% 0 mm 493 W/m2
14:50 22.8 °C 11.5 °C 1022.2 hPa North 4.8 km/h 22.5 km/h 49% 0 mm 471 W/m2
15:00 22.8 °C 11.5 °C 1022.2 hPa North 9.7 km/h 20.9 km/h 49% 0 mm 448 W/m2
15:10 22.8 °C 11.5 °C 1022.2 hPa North 12.9 km/h 20.9 km/h 49% 0 mm 425 W/m2
15:20 22.8 °C 11.5 °C 1022.2 hPa North 12.9 km/h 20.9 km/h 49% 0 mm 400 W/m2
15:30 22.6 °C 11.3 °C 1021.9 hPa North 8 km/h 20.9 km/h 49% 0 mm 374 W/m2
15:40 22.6 °C 11.3 °C 1022.2 hPa North 8 km/h 19.3 km/h 49% 0 mm 348 W/m2
15:50 22.5 °C 11.2 °C 1022.2 hPa North 3.2 km/h 12.9 km/h 49% 0 mm 321 W/m2
16:00 22.5 °C 11.2 °C 1022.2 hPa North 3.2 km/h 14.5 km/h 49% 0 mm 293 W/m2
16:10 22.4 °C 11.2 °C 1022.2 hPa NW 3.2 km/h 12.9 km/h 49% 0 mm 265 W/m2
16:20 22.2 °C 11 °C 1021.9 hPa NNE 4.8 km/h 16.1 km/h 49% 0 mm 237 W/m2
16:30 22.1 °C 11.2 °C 1022.2 hPa NE 4.8 km/h 16.1 km/h 50% 0 mm 206 W/m2
16:40 21.9 °C 11 °C 1022.2 hPa North 1.6 km/h 12.9 km/h 50% 0 mm 178 W/m2
16:50 21.7 °C 11.4 °C 1022.2 hPa WNW 1.6 km/h 11.3 km/h 52% 0 mm 146 W/m2
17:00 21.4 °C 11.1 °C 1022.2 hPa North 4.8 km/h 12.9 km/h 52% 0 mm 118 W/m2
17:10 21.1 °C 10.8 °C 1022.2 hPa WNW 3.2 km/h 11.3 km/h 52% 0 mm 92 W/m2
17:20 20.8 °C 10.8 °C 1022.2 hPa North 1.6 km/h 11.3 km/h 53% 0 mm 68 W/m2
17:30 20.4 °C 10.5 °C 1022.2 hPa North 3.2 km/h 9.7 km/h 53% 0 mm 47 W/m2
17:40 20.1 °C 10.5 °C 1022.2 hPa North 4.8 km/h 14.5 km/h 54% 0 mm 30 W/m2
17:50 19.7 °C 10.1 °C 1022.2 hPa North 4.8 km/h 14.5 km/h 54% 0 mm 13 W/m2
18:00 19.4 °C 10.1 °C 1022.2 hPa North 9.7 km/h 16.1 km/h 55% 0 mm 7 W/m2
18:10 19.1 °C 9.8 °C 1022.2 hPa North 4.8 km/h 16.1 km/h 55% 0 mm 0 W/m2
18:20 18.8 °C 9.6 °C 1022.6 hPa North 4.8 km/h 11.3 km/h 55% 0 mm 0 W/m2
18:30 18.5 °C 9.8 °C 1022.2 hPa North 8 km/h 16.1 km/h 57% 0 mm 0 W/m2
18:40 18.3 °C 9.6 °C 1022.6 hPa North 8 km/h 17.7 km/h 57% 0 mm 0 W/m2
18:50 18.1 °C 9.4 °C 1022.9 hPa North 1.6 km/h 9.7 km/h 57% 0 mm 0 W/m2
19:00 17.8 °C 9.4 °C 1022.9 hPa NNE 4.8 km/h 11.3 km/h 58% 0 mm 0 W/m2
19:10 17.4 °C 9.1 °C 1022.9 hPa North 3.2 km/h 9.7 km/h 58% 0 mm 0 W/m2
19:20 17.2 °C 9.1 °C 1022.9 hPa NNW 1.6 km/h 8 km/h 59% 0 mm 0 W/m2
19:30 16.8 °C 9.4 °C 1022.9 hPa NE 3.2 km/h 6.4 km/h 62% 0 mm 0 W/m2
19:40 16.3 °C 9 °C 1022.9 hPa NE 3.2 km/h 6.4 km/h 62% 0 mm 0 W/m2
19:50 15.9 °C 8.8 °C 1022.9 hPa North 3.2 km/h 11.3 km/h 63% 0 mm 0 W/m2
20:00 15.7 °C 8.7 °C 1023.2 hPa NE 1.6 km/h 11.3 km/h 63% 0 mm 0 W/m2
20:10 15.3 °C 8.3 °C 1023.2 hPa NNE 1.6 km/h 9.7 km/h 63% 0 mm 0 W/m2
20:20 14.8 °C 8.7 °C 1023.2 hPa Calm   8 km/h 67% 0 mm 0 W/m2
20:30 14.4 °C 8.6 °C 1023.6 hPa Calm   3.2 km/h 68% 0 mm 0 W/m2
20:40 14 °C 8.2 °C 1023.6 hPa Calm   4.8 km/h 68% 0 mm 0 W/m2
20:50 13.6 °C 8 °C 1023.6 hPa South 1.6 km/h 6.4 km/h 69% 0 mm 0 W/m2
21:00 13.2 °C 7.8 °C 1023.9 hPa SSE 1.6 km/h 4.8 km/h 70% 0 mm 0 W/m2
21:10 12.7 °C 7.8 °C 1023.9 hPa SSE 1.6 km/h 6.4 km/h 72% 0 mm 0 W/m2
21:20 12.4 °C 7.7 °C 1023.9 hPa South 1.6 km/h 6.4 km/h 73% 0 mm 0 W/m2
21:30 12.2 °C 7.7 °C 1023.9 hPa SSE 3.2 km/h 4.8 km/h 74% 0 mm 0 W/m2
Knjazevac, Serbia
Compliments of Weather Underground - 2 mb